Time;durP1;ratioP1;P1;durP2;ratioP2;P2;SDS_P1;SDS_P2;PMS_P1;PMS_P2;Temp;Humidity;BMP_temperature;BMP_pressure;BME280_temperature;BME280_humidity;BME280_pressure;Samples;Min_cycle;Max_cycle;Signal;HPM_P1;HPM_P2
2023/10/15 00:01:11;;;;;;;12.10;3.35;;;;;;;;;;10295931;28;20075;-64
2023/10/15 00:06:12;;;;;;;6.88;3.17;;;;;;;;;;10276029;28;20041;-63
2023/10/15 00:11:17;;;;;;;6.80;2.72;;;;;;;;;;10293817;28;20067;-64
2023/10/15 00:16:19;;;;;;;6.72;3.22;;;;;;;;;;10292051;28;20091;-64
2023/10/15 00:21:17;;;;;;;8.65;2.90;;;;;;;;;;10294209;28;20616;-63
2023/10/15 00:26:17;;;;;;;9.15;3.70;;;;;;;;;;10292770;28;20098;-64
2023/10/15 00:31:20;;;;;;;6.28;3.22;;;;;;;;;;10299352;28;20072;-64
2023/10/15 00:36:19;;;;;;;8.10;2.67;;;;;;;;;;10292299;28;20078;-64
2023/10/15 00:41:19;;;;;;;7.07;3.65;;;;;;;;;;10293195;28;20052;-64
2023/10/15 00:46:17;;;;;;;8.52;3.72;;;;;;;;;;10299414;28;20454;-64
2023/10/15 00:51:20;;;;;;;8.68;3.60;;;;;;;;;;10291241;28;20083;-64
2023/10/15 00:56:24;;;;;;;7.03;3.70;;;;;;;;;;10292386;28;20076;-64
2023/10/15 01:01:26;;;;;;;6.90;4.13;;;;;;;;;;10291068;28;20084;-64
2023/10/15 01:06:30;;;;;;;6.78;2.92;;;;;;;;;;10293482;28;20068;-64
2023/10/15 01:11:31;;;;;;;8.05;2.90;;;;;;;;;;10291624;28;20064;-65
2023/10/15 01:16:35;;;;;;;4.63;2.90;;;;;;;;;;10291476;28;20083;-65
2023/10/15 01:21:43;;;;;;;6.22;3.15;;;;;;;;;;10297923;28;20499;-65
2023/10/15 01:26:45;;;;;;;6.63;3.28;;;;;;;;;;10291340;28;20557;-64
2023/10/15 01:31:51;;;;;;;6.60;2.70;;;;;;;;;;10271948;28;20514;-65
2023/10/15 01:36:51;;;;;;;5.50;2.58;;;;;;;;;;10288631;28;20081;-64
2023/10/15 01:41:53;;;;;;;6.63;3.60;;;;;;;;;;10292143;28;20458;-65
2023/10/15 01:47:07;;;;;;;6.20;3.40;;;;;;;;;;10289561;28;20071;-64
2023/10/15 01:52:10;;;;;;;9.57;3.67;;;;;;;;;;10290160;28;20069;-64
2023/10/15 01:57:14;;;;;;;6.57;2.72;;;;;;;;;;10289359;28;20502;-64
2023/10/15 02:02:13;;;;;;;6.13;3.10;;;;;;;;;;10286699;28;20083;-64
2023/10/15 02:07:13;;;;;;;5.35;2.97;;;;;;;;;;10291586;28;20075;-64
2023/10/15 02:12:13;;;;;;;7.78;2.55;;;;;;;;;;10288767;28;20076;-64
2023/10/15 02:17:14;;;;;;;5.82;2.72;;;;;;;;;;10288825;28;20088;-64
2023/10/15 02:22:13;;;;;;;5.70;3.28;;;;;;;;;;10302373;28;20521;-64
2023/10/15 02:27:17;;;;;;;7.15;2.63;;;;;;;;;;10289492;28;20084;-65
2023/10/15 02:32:28;;;;;;;5.28;3.22;;;;;;;;;;10287950;28;20064;-64
2023/10/15 02:37:28;;;;;;;4.95;3.58;;;;;;;;;;10286870;28;20076;-65
2023/10/15 02:42:33;;;;;;;7.55;3.28;;;;;;;;;;10290247;28;20101;-65
2023/10/15 02:47:40;;;;;;;4.38;3.25;;;;;;;;;;10291688;28;20079;-65
2023/10/15 02:52:43;;;;;;;7.57;2.90;;;;;;;;;;10286663;28;20422;-65
2023/10/15 02:57:51;;;;;;;9.18;3.38;;;;;;;;;;10286785;28;20709;-64
2023/10/15 03:02:49;;;;;;;7.18;3.58;;;;;;;;;;10287669;28;20088;-65
2023/10/15 03:07:48;;;;;;;7.35;3.28;;;;;;;;;;10293552;28;20075;-65
2023/10/15 03:12:47;;;;;;;6.22;3.20;;;;;;;;;;10293752;28;20087;-65
2023/10/15 03:17:45;;;;;;;5.25;2.72;;;;;;;;;;10296013;28;20069;-65
2023/10/15 03:22:44;;;;;;;6.93;3.75;;;;;;;;;;10302544;28;20080;-65
2023/10/15 03:27:46;;;;;;;8.50;3.03;;;;;;;;;;10296197;28;20060;-64
2023/10/15 03:32:46;;;;;;;6.82;3.80;;;;;;;;;;10294917;28;20073;-64
2023/10/15 03:37:47;;;;;;;3.85;2.97;;;;;;;;;;10294770;28;20496;-64
2023/10/15 03:42:45;;;;;;;4.72;3.15;;;;;;;;;;10293756;28;20099;-64
2023/10/15 03:47:47;;;;;;;4.93;3.05;;;;;;;;;;10295669;28;20064;-65
2023/10/15 03:52:47;;;;;;;7.50;4.03;;;;;;;;;;10295490;28;20494;-65
2023/10/15 03:57:48;;;;;;;6.90;3.67;;;;;;;;;;10295324;28;20546;-64
2023/10/15 04:03:01;;;;;;;4.30;3.10;;;;;;;;;;10294608;28;20079;-64
2023/10/15 04:08:01;;;;;;;7.93;3.67;;;;;;;;;;10292663;28;20125;-64
2023/10/15 04:12:59;;;;;;;7.28;3.40;;;;;;;;;;10290209;28;20566;-64
2023/10/15 04:17:57;;;;;;;6.00;3.65;;;;;;;;;;10290302;28;20075;-64
2023/10/15 04:22:57;;;;;;;11.48;3.80;;;;;;;;;;10294227;28;20040;-64
2023/10/15 04:27:56;;;;;;;5.32;3.42;;;;;;;;;;10294004;28;20065;-65
2023/10/15 04:32:56;;;;;;;5.45;3.22;;;;;;;;;;10293295;28;20071;-61
2023/10/15 04:37:57;;;;;;;11.48;3.60;;;;;;;;;;10293948;28;20080;-64
2023/10/15 04:42:59;;;;;;;6.40;3.67;;;;;;;;;;10293661;28;20077;-65
2023/10/15 04:48:01;;;;;;;5.55;3.33;;;;;;;;;;10290770;28;20113;-63
2023/10/15 04:53:12;;;;;;;5.28;3.17;;;;;;;;;;10291272;28;20115;-65
2023/10/15 04:58:12;;;;;;;10.65;3.85;;;;;;;;;;10290550;28;20075;-64
2023/10/15 05:03:11;;;;;;;10.93;3.95;;;;;;;;;;10292472;28;20057;-64
2023/10/15 05:08:11;;;;;;;6.75;3.33;;;;;;;;;;10292426;28;20072;-64
2023/10/15 05:13:11;;;;;;;9.25;4.43;;;;;;;;;;10292221;28;20079;-63
2023/10/15 05:18:10;;;;;;;12.38;4.20;;;;;;;;;;10290735;28;20064;-63
2023/10/15 05:23:08;;;;;;;5.97;4.15;;;;;;;;;;10288285;28;20529;-64
2023/10/15 05:28:07;;;;;;;6.88;3.72;;;;;;;;;;10289919;28;20514;-64
2023/10/15 05:33:07;;;;;;;7.78;4.53;;;;;;;;;;10290665;28;20478;-65
2023/10/15 05:38:08;;;;;;;7.55;3.97;;;;;;;;;;10290807;28;20088;-63
2023/10/15 05:43:07;;;;;;;4.85;3.78;;;;;;;;;;10290505;28;20447;-63
2023/10/15 05:48:07;;;;;;;11.73;3.83;;;;;;;;;;10288741;28;20073;-64
2023/10/15 05:53:06;;;;;;;13.38;4.90;;;;;;;;;;10289793;28;20068;-64
2023/10/15 05:58:07;;;;;;;6.30;3.83;;;;;;;;;;10289307;28;20524;-63
2023/10/15 06:03:08;;;;;;;7.25;3.97;;;;;;;;;;10287322;28;20088;-63
2023/10/15 06:08:08;;;;;;;11.85;4.90;;;;;;;;;;10289803;28;20068;-64
2023/10/15 06:13:06;;;;;;;8.43;4.60;;;;;;;;;;10288613;28;20088;-63
2023/10/15 06:18:05;;;;;;;15.27;4.38;;;;;;;;;;10290229;28;20076;-64
2023/10/15 06:23:07;;;;;;;15.85;4.90;;;;;;;;;;10289121;28;20080;-65
2023/10/15 06:28:06;;;;;;;13.63;4.20;;;;;;;;;;10301229;28;20088;-63
2023/10/15 06:33:04;;;;;;;22.17;5.78;;;;;;;;;;10287081;28;20487;-64
2023/10/15 06:38:03;;;;;;;11.90;5.10;;;;;;;;;;10288881;28;20072;-64
2023/10/15 06:43:03;;;;;;;21.25;8.25;;;;;;;;;;10295507;28;20525;-64
2023/10/15 06:48:03;;;;;;;17.08;8.15;;;;;;;;;;10296692;28;20059;-64
2023/10/15 06:53:05;;;;;;;19.48;8.68;;;;;;;;;;10296934;28;20468;-64
2023/10/15 06:58:05;;;;;;;13.00;7.75;;;;;;;;;;10294229;28;20529;-64
2023/10/15 07:03:04;;;;;;;13.30;6.93;;;;;;;;;;10296197;28;20071;-64
2023/10/15 07:08:02;;;;;;;19.70;11.05;;;;;;;;;;10292987;28;20076;-64
2023/10/15 07:13:01;;;;;;;15.82;7.18;;;;;;;;;;10293117;28;20093;-63
2023/10/15 07:18:01;;;;;;;30.77;16.60;;;;;;;;;;10297116;28;20069;-63
2023/10/15 07:23:00;;;;;;;35.92;19.38;;;;;;;;;;10295214;28;20502;-63
2023/10/15 07:27:59;;;;;;;19.90;6.78;;;;;;;;;;10294954;28;20068;-63
2023/10/15 07:32:58;;;;;;;15.77;11.80;;;;;;;;;;10293463;28;20069;-64
2023/10/15 07:38:02;;;;;;;15.77;7.03;;;;;;;;;;10295316;28;20537;-64
2023/10/15 07:43:02;;;;;;;15.43;6.57;;;;;;;;;;10295402;28;20068;-64
2023/10/15 07:48:02;;;;;;;23.40;6.75;;;;;;;;;;10295722;28;20072;-65
2023/10/15 07:53:02;;;;;;;19.13;7.93;;;;;;;;;;10292089;28;20080;-65
2023/10/15 07:58:01;;;;;;;29.83;13.32;;;;;;;;;;10295212;28;20087;-65
2023/10/15 08:02:59;;;;;;;18.67;6.63;;;;;;;;;;10294538;28;20140;-65
2023/10/15 08:07:59;;;;;;;14.73;10.38;;;;;;;;;;10295044;28;20071;-65
2023/10/15 08:12:59;;;;;;;26.00;14.18;;;;;;;;;;10290966;28;20072;-64
2023/10/15 08:17:58;;;;;;;28.73;11.90;;;;;;;;;;10294047;28;20064;-65
2023/10/15 08:22:56;;;;;;;12.55;7.35;;;;;;;;;;10294804;28;20485;-64
2023/10/15 08:27:54;;;;;;;9.88;6.57;;;;;;;;;;10294180;28;20490;-64
2023/10/15 08:32:54;;;;;;;21.73;7.80;;;;;;;;;;10292550;28;20544;-64
2023/10/15 08:37:52;;;;;;;28.67;13.60;;;;;;;;;;10307816;28;20071;-64
2023/10/15 08:42:53;;;;;;;17.33;9.70;;;;;;;;;;10291496;28;20076;-64
2023/10/15 08:47:53;;;;;;;21.42;11.07;;;;;;;;;;10294531;28;20076;-64
2023/10/15 08:52:54;;;;;;;15.50;8.43;;;;;;;;;;10293774;28;20075;-64
2023/10/15 08:57:54;;;;;;;19.02;8.27;;;;;;;;;;10294168;28;20072;-64
2023/10/15 09:02:54;;;;;;;14.95;9.07;;;;;;;;;;10291948;28;20069;-64
2023/10/15 09:07:54;;;;;;;21.77;12.13;;;;;;;;;;10291307;28;20091;-63
2023/10/15 09:12:53;;;;;;;12.73;8.50;;;;;;;;;;10291432;28;20080;-65
2023/10/15 09:17:52;;;;;;;24.50;12.88;;;;;;;;;;10291807;28;20060;-64
2023/10/15 09:22:51;;;;;;;16.98;7.80;;;;;;;;;;10291834;28;20064;-64
2023/10/15 09:27:53;;;;;;;11.05;6.35;;;;;;;;;;10295715;28;20048;-64
2023/10/15 09:32:51;;;;;;;25.33;16.77;;;;;;;;;;10289670;28;20075;-65
2023/10/15 09:37:50;;;;;;;12.20;8.32;;;;;;;;;;10289791;28;20092;-64
2023/10/15 09:42:54;;;;;;;11.27;6.22;;;;;;;;;;10288463;28;20065;-64
2023/10/15 09:47:57;;;;;;;14.88;6.88;;;;;;;;;;10276067;28;20100;-64
2023/10/15 09:52:57;;;;;;;26.98;9.32;;;;;;;;;;10268058;28;20075;-66
2023/10/15 09:57:57;;;;;;;15.35;7.70;;;;;;;;;;10279208;28;20064;-63
2023/10/15 10:03:03;;;;;;;11.85;7.97;;;;;;;;;;10272000;28;20076;-64
2023/10/15 10:08:05;;;;;;;18.88;8.10;;;;;;;;;;10282674;28;20076;-64
2023/10/15 10:13:13;;;;;;;22.88;6.35;;;;;;;;;;10288230;28;20506;-64
2023/10/15 10:18:12;;;;;;;11.57;5.82;;;;;;;;;;10285134;28;20072;-65
2023/10/15 10:23:11;;;;;;;13.05;5.95;;;;;;;;;;10276619;28;20072;-64
2023/10/15 10:28:11;;;;;;;19.30;6.70;;;;;;;;;;10279858;28;20111;-63
2023/10/15 10:33:12;;;;;;;11.27;7.00;;;;;;;;;;10290778;28;20079;-64
2023/10/15 10:38:17;;;;;;;13.20;7.45;;;;;;;;;;10289732;28;20075;-64
2023/10/15 10:43:17;;;;;;;19.08;6.57;;;;;;;;;;10287415;28;20072;-64
2023/10/15 10:48:20;;;;;;;19.08;7.65;;;;;;;;;;10290163;28;20433;-65
2023/10/15 10:53:19;;;;;;;17.98;6.10;;;;;;;;;;10289958;28;20075;-64
2023/10/15 10:58:24;;;;;;;20.05;6.47;;;;;;;;;;10288501;28;20073;-64
2023/10/15 11:03:23;;;;;;;13.27;6.75;;;;;;;;;;10284754;28;20068;-63
2023/10/15 11:08:22;;;;;;;29.38;8.15;;;;;;;;;;10288478;28;20518;-64
2023/10/15 11:13:20;;;;;;;15.60;6.00;;;;;;;;;;10288817;28;20084;-64
2023/10/15 11:18:23;;;;;;;11.07;7.50;;;;;;;;;;10287208;28;20478;-64
2023/10/15 11:23:23;;;;;;;18.42;7.70;;;;;;;;;;10286528;28;20072;-65
2023/10/15 11:28:24;;;;;;;23.08;8.27;;;;;;;;;;10292649;28;20478;-63
2023/10/15 11:33:24;;;;;;;17.98;8.40;;;;;;;;;;10292829;28;20075;-64
2023/10/15 11:38:22;;;;;;;14.07;6.80;;;;;;;;;;10293948;28;20498;-63
2023/10/15 11:43:20;;;;;;;15.43;7.88;;;;;;;;;;10296293;28;20099;-64
2023/10/15 11:48:21;;;;;;;12.10;7.50;;;;;;;;;;10294623;28;20435;-65
2023/10/15 11:53:23;;;;;;;27.08;7.75;;;;;;;;;;10295044;28;20067;-63
2023/10/15 11:58:23;;;;;;;15.13;7.80;;;;;;;;;;10294392;28;20084;-63
2023/10/15 12:03:21;;;;;;;14.98;8.50;;;;;;;;;;10294275;28;20069;-64
2023/10/15 12:08:21;;;;;;;20.05;8.00;;;;;;;;;;10295211;28;20128;-63
2023/10/15 12:13:21;;;;;;;23.25;8.43;;;;;;;;;;10291584;28;20088;-64
2023/10/15 12:18:19;;;;;;;13.73;8.23;;;;;;;;;;10295289;28;20077;-63
2023/10/15 12:23:19;;;;;;;20.02;11.93;;;;;;;;;;10293068;28;20068;-65
2023/10/15 12:28:17;;;;;;;11.60;8.02;;;;;;;;;;10293725;28;20084;-63
2023/10/15 12:33:17;;;;;;;15.13;8.32;;;;;;;;;;10294654;28;20060;-64
2023/10/15 12:38:26;;;;;;;12.00;7.03;;;;;;;;;;10288706;28;20450;-64
2023/10/15 12:43:26;;;;;;;15.90;7.55;;;;;;;;;;10293894;28;20103;-64
2023/10/15 12:48:27;;;;;;;16.60;8.02;;;;;;;;;;10293211;28;20048;-64
2023/10/15 12:53:26;;;;;;;12.15;7.93;;;;;;;;;;10292799;28;20079;-63
2023/10/15 12:58:24;;;;;;;23.95;8.82;;;;;;;;;;10289870;28;20455;-64
2023/10/15 13:03:22;;;;;;;19.83;9.85;;;;;;;;;;10289877;28;20506;-64
2023/10/15 13:08:22;;;;;;;13.88;10.25;;;;;;;;;;10292807;28;20072;-64
2023/10/15 13:13:20;;;;;;;18.95;11.80;;;;;;;;;;10292102;28;20079;-64
2023/10/15 13:18:19;;;;;;;16.75;10.27;;;;;;;;;;10289765;28;20080;-65
2023/10/15 13:23:17;;;;;;;13.52;9.23;;;;;;;;;;10289288;28;20065;-63
2023/10/15 13:28:17;;;;;;;13.68;8.02;;;;;;;;;;10290702;28;20072;-64
2023/10/15 13:33:15;;;;;;;14.88;8.05;;;;;;;;;;10287892;28;20080;-65
2023/10/15 13:38:13;;;;;;;14.38;7.88;;;;;;;;;;10291721;28;20509;-64
2023/10/15 13:43:12;;;;;;;12.20;7.18;;;;;;;;;;10290426;28;20082;-63
2023/10/15 13:48:12;;;;;;;19.77;7.63;;;;;;;;;;10289807;28;20095;-64
2023/10/15 13:53:11;;;;;;;20.20;9.32;;;;;;;;;;10289203;28;20079;-64
2023/10/15 13:58:09;;;;;;;22.42;13.82;;;;;;;;;;10289111;28;20076;-64
2023/10/15 14:03:07;;;;;;;13.57;7.97;;;;;;;;;;10290827;28;20115;-64
2023/10/15 14:08:08;;;;;;;24.27;8.50;;;;;;;;;;10291275;28;20068;-64
2023/10/15 14:13:07;;;;;;;12.63;9.27;;;;;;;;;;10290196;28;20045;-64
2023/10/15 14:18:17;;;;;;;15.32;9.48;;;;;;;;;;10290114;28;20073;-64
2023/10/15 14:23:18;;;;;;;13.32;8.52;;;;;;;;;;10290778;28;20064;-65
2023/10/15 14:28:16;;;;;;;14.70;8.90;;;;;;;;;;10290978;28;20081;-63
2023/10/15 14:33:17;;;;;;;16.27;8.85;;;;;;;;;;10271447;28;20083;-64
2023/10/15 14:38:17;;;;;;;16.73;9.43;;;;;;;;;;10286896;28;20068;-64
2023/10/15 14:43:16;;;;;;;20.80;13.02;;;;;;;;;;10288336;28;20544;-63
2023/10/15 14:48:17;;;;;;;10.55;7.63;;;;;;;;;;10288489;28;20069;-64
2023/10/15 14:53:18;;;;;;;16.35;8.82;;;;;;;;;;10287843;28;20052;-64
2023/10/15 14:58:16;;;;;;;63.35;47.10;;;;;;;;;;10290174;28;20100;-65
2023/10/15 15:03:20;;;;;;;48.17;35.28;;;;;;;;;;10300648;28;20076;-64
2023/10/15 15:08:20;;;;;;;42.30;31.23;;;;;;;;;;10297295;28;20075;-64
2023/10/15 15:13:18;;;;;;;20.13;11.02;;;;;;;;;;10296934;28;20099;-64
2023/10/15 15:18:17;;;;;;;29.25;21.23;;;;;;;;;;10296269;28;20444;-64
2023/10/15 15:23:15;;;;;;;23.63;16.02;;;;;;;;;;10294218;28;20069;-63
2023/10/15 15:28:15;;;;;;;23.38;16.63;;;;;;;;;;10295585;28;20080;-64
2023/10/15 15:33:13;;;;;;;24.52;11.95;;;;;;;;;;10296792;28;20077;-64
2023/10/15 15:38:11;;;;;;;26.08;18.42;;;;;;;;;;10294806;28;20110;-63
2023/10/15 15:43:09;;;;;;;38.65;24.30;;;;;;;;;;10293298;28;20091;-64
2023/10/15 15:48:10;;;;;;;27.35;21.05;;;;;;;;;;10295090;28;20068;-63
2023/10/15 15:53:08;;;;;;;17.65;10.93;;;;;;;;;;10294914;28;20087;-63
2023/10/15 15:58:06;;;;;;;13.80;8.73;;;;;;;;;;10296896;28;20087;-64
2023/10/15 16:03:06;;;;;;;13.63;7.00;;;;;;;;;;10292747;28;20109;-64
2023/10/15 16:08:07;;;;;;;12.52;6.75;;;;;;;;;;10291038;28;20505;-64
2023/10/15 16:13:05;;;;;;;13.95;6.32;;;;;;;;;;10291325;28;20080;-64
2023/10/15 16:18:06;;;;;;;12.43;6.88;;;;;;;;;;10295591;28;20072;-63
2023/10/15 16:23:06;;;;;;;20.08;7.20;;;;;;;;;;10294513;28;20073;-64
2023/10/15 16:28:06;;;;;;;13.27;6.72;;;;;;;;;;10293376;28;20725;-64
2023/10/15 16:33:04;;;;;;;9.13;7.97;;;;;;;;;;10294671;28;20100;-64
2023/10/15 16:38:02;;;;;;;12.65;6.53;;;;;;;;;;10291470;28;20557;-65
2023/10/15 16:43:04;;;;;;;14.40;7.40;;;;;;;;;;10291984;28;20476;-63
2023/10/15 16:48:02;;;;;;;17.17;10.55;;;;;;;;;;10293906;28;20087;-63
2023/10/15 16:53:02;;;;;;;13.38;7.80;;;;;;;;;;10291999;28;20087;-64
2023/10/15 16:58:02;;;;;;;15.93;8.82;;;;;;;;;;10293318;28;20069;-63
2023/10/15 17:03:00;;;;;;;11.82;7.18;;;;;;;;;;10292644;28;20068;-64
2023/10/15 17:07:58;;;;;;;13.57;7.13;;;;;;;;;;10290319;28;20075;-64
2023/10/15 17:12:57;;;;;;;13.32;7.28;;;;;;;;;;10298776;28;20083;-64
2023/10/15 17:17:56;;;;;;;17.48;7.85;;;;;;;;;;10291475;28;20072;-63
2023/10/15 17:22:58;;;;;;;16.77;7.95;;;;;;;;;;10291545;28;20163;-64
2023/10/15 17:27:56;;;;;;;16.23;8.30;;;;;;;;;;10293211;28;20092;-64
2023/10/15 17:32:54;;;;;;;13.38;7.50;;;;;;;;;;10290741;28;20072;-64
2023/10/15 17:37:54;;;;;;;11.18;7.68;;;;;;;;;;10288621;28;20077;-64
2023/10/15 17:42:52;;;;;;;13.48;7.38;;;;;;;;;;10289525;28;20498;-64
2023/10/15 17:47:51;;;;;;;21.95;8.07;;;;;;;;;;10292275;28;20083;-63
2023/10/15 17:52:50;;;;;;;14.70;7.35;;;;;;;;;;10289448;28;20083;-63
2023/10/15 17:57:49;;;;;;;13.10;7.70;;;;;;;;;;10284840;28;20061;-64
2023/10/15 18:02:47;;;;;;;12.65;7.25;;;;;;;;;;10286464;28;20072;-62
2023/10/15 18:07:48;;;;;;;12.10;8.05;;;;;;;;;;10287856;28;20080;-65
2023/10/15 18:12:46;;;;;;;15.10;8.73;;;;;;;;;;10286592;28;20088;-63
2023/10/15 18:17:46;;;;;;;16.58;8.25;;;;;;;;;;10269096;28;20521;-65
2023/10/15 18:22:46;;;;;;;12.32;7.75;;;;;;;;;;10282525;28;20091;-63
2023/10/15 18:27:44;;;;;;;14.52;7.32;;;;;;;;;;10275945;28;20076;-63
2023/10/15 18:32:43;;;;;;;13.65;8.70;;;;;;;;;;10280063;28;20064;-64
2023/10/15 18:37:43;;;;;;;11.07;7.47;;;;;;;;;;10288483;28;20064;-62
2023/10/15 18:42:41;;;;;;;14.32;8.70;;;;;;;;;;10287845;28;20067;-64
2023/10/15 18:47:40;;;;;;;17.38;7.97;;;;;;;;;;10287369;28;20064;-64
2023/10/15 18:52:39;;;;;;;11.48;8.30;;;;;;;;;;10297258;28;20068;-63
2023/10/15 18:57:38;;;;;;;17.10;7.97;;;;;;;;;;10294435;28;20075;-64
2023/10/15 19:02:37;;;;;;;19.23;8.02;;;;;;;;;;10298395;28;20095;-64
2023/10/15 19:07:35;;;;;;;13.05;8.45;;;;;;;;;;10297480;28;20487;-64
2023/10/15 19:12:33;;;;;;;16.65;8.73;;;;;;;;;;10293218;28;20060;-65
2023/10/15 19:17:33;;;;;;;19.13;8.43;;;;;;;;;;10296880;28;20076;-64
2023/10/15 19:22:31;;;;;;;16.38;9.48;;;;;;;;;;10292076;28;20076;-64
2023/10/15 19:27:29;;;;;;;12.85;8.13;;;;;;;;;;10294594;28;20080;-65
2023/10/15 19:32:29;;;;;;;13.50;9.15;;;;;;;;;;10284642;28;20077;-64
2023/10/15 19:37:29;;;;;;;20.23;10.70;;;;;;;;;;10282995;28;20083;-63
2023/10/15 19:42:28;;;;;;;16.20;9.75;;;;;;;;;;10294211;28;20083;-62
2023/10/15 19:47:26;;;;;;;15.93;9.65;;;;;;;;;;10290669;28;20568;-63
2023/10/15 19:52:25;;;;;;;17.38;9.88;;;;;;;;;;10296237;28;20079;-63
2023/10/15 19:57:25;;;;;;;19.58;10.73;;;;;;;;;;10294848;28;20075;-64
2023/10/15 20:02:24;;;;;;;19.13;11.35;;;;;;;;;;10296533;28;20087;-64
2023/10/15 20:07:22;;;;;;;16.23;10.80;;;;;;;;;;10294493;28;20065;-64
2023/10/15 20:12:22;;;;;;;17.55;11.15;;;;;;;;;;10293557;28;20079;-63
2023/10/15 20:17:22;;;;;;;17.98;12.90;;;;;;;;;;10296355;28;20087;-63
2023/10/15 20:22:20;;;;;;;19.00;13.43;;;;;;;;;;10294982;28;20064;-64
2023/10/15 20:27:18;;;;;;;23.25;15.38;;;;;;;;;;10296156;28;20060;-64
2023/10/15 20:32:16;;;;;;;24.42;16.98;;;;;;;;;;10287994;28;20068;-64
2023/10/15 20:37:16;;;;;;;19.50;15.02;;;;;;;;;;10292455;28;20090;-64
2023/10/15 20:42:14;;;;;;;29.50;18.42;;;;;;;;;;10294103;28;20080;-64
2023/10/15 20:47:12;;;;;;;35.53;18.45;;;;;;;;;;10294122;28;20083;-63
2023/10/15 20:52:11;;;;;;;35.25;16.85;;;;;;;;;;10291831;28;20073;-63
2023/10/15 20:57:10;;;;;;;25.73;13.57;;;;;;;;;;10292926;28;20075;-63
2023/10/15 21:02:09;;;;;;;41.55;11.98;;;;;;;;;;10293736;28;20471;-62
2023/10/15 21:07:09;;;;;;;29.13;9.55;;;;;;;;;;10292484;28;20588;-63
2023/10/15 21:12:07;;;;;;;26.63;9.70;;;;;;;;;;10289661;28;20557;-63
2023/10/15 21:17:07;;;;;;;19.80;7.95;;;;;;;;;;10287124;28;20103;-64
2023/10/15 21:22:05;;;;;;;12.25;7.88;;;;;;;;;;10284838;28;20120;-64
2023/10/15 21:27:03;;;;;;;14.73;8.40;;;;;;;;;;10289015;28;20069;-64
2023/10/15 21:32:02;;;;;;;17.58;6.80;;;;;;;;;;10292604;28;20075;-63
2023/10/15 21:37:02;;;;;;;17.88;5.80;;;;;;;;;;10291879;28;20065;-63
2023/10/15 21:42:00;;;;;;;16.38;5.78;;;;;;;;;;10292537;28;20072;-63
2023/10/15 21:46:58;;;;;;;22.95;5.13;;;;;;;;;;10290791;28;20068;-64
2023/10/15 21:51:56;;;;;;;18.92;4.85;;;;;;;;;;10291967;28;20065;-64
2023/10/15 21:56:56;;;;;;;24.13;5.25;;;;;;;;;;10290413;28;20475;-64
2023/10/15 22:01:54;;;;;;;24.70;4.88;;;;;;;;;;10292101;28;20068;-64
2023/10/15 22:06:53;;;;;;;20.95;4.05;;;;;;;;;;10290257;28;20068;-64
2023/10/15 22:11:52;;;;;;;27.88;3.50;;;;;;;;;;10290247;28;20068;-64
2023/10/15 22:16:54;;;;;;;19.80;4.13;;;;;;;;;;10289258;28;20087;-63
2023/10/15 22:21:53;;;;;;;13.57;3.63;;;;;;;;;;10290291;28;20072;-64
2023/10/15 22:26:52;;;;;;;16.67;4.80;;;;;;;;;;10290601;28;20076;-63
2023/10/15 22:31:52;;;;;;;16.30;4.18;;;;;;;;;;10291037;28;20463;-63
2023/10/15 22:36:52;;;;;;;21.23;4.60;;;;;;;;;;10289421;28;20053;-64
2023/10/15 22:41:54;;;;;;;24.77;5.05;;;;;;;;;;10289823;28;20077;-64
2023/10/15 22:46:54;;;;;;;47.10;5.72;;;;;;;;;;10290027;28;20080;-63
2023/10/15 22:51:54;;;;;;;30.88;4.93;;;;;;;;;;10290336;28;20068;-64
2023/10/15 22:56:53;;;;;;;30.58;5.07;;;;;;;;;;10291589;28;20491;-64
2023/10/15 23:01:51;;;;;;;11.75;4.10;;;;;;;;;;10287366;28;20064;-64
2023/10/15 23:06:51;;;;;;;30.25;4.53;;;;;;;;;;10286948;28;20071;-64
2023/10/15 23:11:50;;;;;;;21.15;3.38;;;;;;;;;;10290679;28;20060;-63
2023/10/15 23:16:48;;;;;;;16.70;2.97;;;;;;;;;;10289444;28;20084;-63
2023/10/15 23:21:54;;;;;;;27.70;3.28;;;;;;;;;;10291540;28;20179;-64
2023/10/15 23:26:55;;;;;;;19.00;2.97;;;;;;;;;;10297626;28;20122;-64
2023/10/15 23:31:53;;;;;;;11.02;2.88;;;;;;;;;;10295179;28;20056;-63
2023/10/15 23:36:51;;;;;;;18.77;3.58;;;;;;;;;;10297957;28;20079;-63
2023/10/15 23:41:50;;;;;;;10.25;3.53;;;;;;;;;;10296720;28;20075;-64
2023/10/15 23:47:00;;;;;;;18.35;2.60;;;;;;;;;;10295158;28;20084;-63
2023/10/15 23:51:58;;;;;;;8.55;1.90;;;;;;;;;;10295355;28;20081;-64
2023/10/15 23:56:59;;;;;;;11.20;1.80;;;;;;;;;;10297178;28;20065;-64
